sensor_id;sensor_type;location;lat;lon;timestamp;P1;durP1;ratioP1;P2;durP2;ratioP2
6823;SDS011;58633;49.470;11.004;2023-05-29T00:01:12;5.28;;;2.88;;
6823;SDS011;58633;49.470;11.004;2023-05-29T00:03:38;3.00;;;2.72;;
6823;SDS011;58633;49.470;11.004;2023-05-29T00:06:04;5.43;;;3.28;;
6823;SDS011;58633;49.470;11.004;2023-05-29T00:08:31;6.38;;;3.45;;
6823;SDS011;58633;49.470;11.004;2023-05-29T00:10:56;5.57;;;3.17;;
6823;SDS011;58633;49.470;11.004;2023-05-29T00:13:22;7.05;;;3.20;;
6823;SDS011;58633;49.470;11.004;2023-05-29T00:15:48;5.25;;;3.13;;
6823;SDS011;58633;49.470;11.004;2023-05-29T00:18:14;4.88;;;3.20;;
6823;SDS011;58633;49.470;11.004;2023-05-29T00:20:39;4.35;;;3.40;;
6823;SDS011;58633;49.470;11.004;2023-05-29T00:23:05;6.20;;;3.30;;
6823;SDS011;58633;49.470;11.004;2023-05-29T00:25:31;4.75;;;3.38;;
6823;SDS011;58633;49.470;11.004;2023-05-29T00:27:57;4.63;;;2.78;;
6823;SDS011;58633;49.470;11.004;2023-05-29T00:30:23;4.32;;;3.20;;
6823;SDS011;58633;49.470;11.004;2023-05-29T00:32:48;5.13;;;3.30;;
6823;SDS011;58633;49.470;11.004;2023-05-29T00:35:14;5.32;;;3.25;;
6823;SDS011;58633;49.470;11.004;2023-05-29T00:37:40;4.22;;;3.25;;
6823;SDS011;58633;49.470;11.004;2023-05-29T00:40:06;3.35;;;2.90;;
6823;SDS011;58633;49.470;11.004;2023-05-29T00:42:32;7.03;;;3.05;;
6823;SDS011;58633;49.470;11.004;2023-05-29T00:44:57;6.90;;;3.65;;
6823;SDS011;58633;49.470;11.004;2023-05-29T00:47:23;5.55;;;3.50;;
6823;SDS011;58633;49.470;11.004;2023-05-29T00:49:49;5.55;;;3.28;;
6823;SDS011;58633;49.470;11.004;2023-05-29T00:52:16;4.05;;;3.30;;
6823;SDS011;58633;49.470;11.004;2023-05-29T00:54:43;5.43;;;3.00;;
6823;SDS011;58633;49.470;11.004;2023-05-29T00:57:10;4.45;;;3.05;;
6823;SDS011;58633;49.470;11.004;2023-05-29T00:59:38;4.95;;;3.25;;
6823;SDS011;58633;49.470;11.004;2023-05-29T01:02:06;3.88;;;3.00;;
6823;SDS011;58633;49.470;11.004;2023-05-29T01:04:32;5.47;;;3.17;;
6823;SDS011;58633;49.470;11.004;2023-05-29T01:07:01;6.78;;;3.40;;
6823;SDS011;58633;49.470;11.004;2023-05-29T01:09:30;4.40;;;3.35;;
6823;SDS011;58633;49.470;11.004;2023-05-29T01:11:58;5.10;;;3.15;;
6823;SDS011;58633;49.470;11.004;2023-05-29T01:14:53;5.75;;;3.25;;
6823;SDS011;58633;49.470;11.004;2023-05-29T01:23:07;5.63;;;2.83;;
6823;SDS011;58633;49.470;11.004;2023-05-29T01:25:46;4.00;;;2.90;;
6823;SDS011;58633;49.470;11.004;2023-05-29T01:28:19;5.15;;;3.28;;
6823;SDS011;58633;49.470;11.004;2023-05-29T01:30:47;8.93;;;3.35;;
6823;SDS011;58633;49.470;11.004;2023-05-29T01:33:14;5.43;;;3.60;;
6823;SDS011;58633;49.470;11.004;2023-05-29T01:35:40;3.88;;;3.00;;
6823;SDS011;58633;49.470;11.004;2023-05-29T01:38:05;3.85;;;3.15;;
6823;SDS011;58633;49.470;11.004;2023-05-29T01:40:31;7.13;;;3.45;;
6823;SDS011;58633;49.470;11.004;2023-05-29T01:42:57;3.25;;;2.95;;
6823;SDS011;58633;49.470;11.004;2023-05-29T01:45:22;4.75;;;3.33;;
6823;SDS011;58633;49.470;11.004;2023-05-29T01:47:48;4.03;;;3.33;;
6823;SDS011;58633;49.470;11.004;2023-05-29T01:50:15;7.72;;;3.50;;
6823;SDS011;58633;49.470;11.004;2023-05-29T01:52:43;8.02;;;3.58;;
6823;SDS011;58633;49.470;11.004;2023-05-29T01:55:09;5.93;;;3.25;;
6823;SDS011;58633;49.470;11.004;2023-05-29T01:57:35;6.53;;;3.75;;
6823;SDS011;58633;49.470;11.004;2023-05-29T02:00:02;6.32;;;3.10;;
6823;SDS011;58633;49.470;11.004;2023-05-29T02:02:35;5.05;;;3.47;;
6823;SDS011;58633;49.470;11.004;2023-05-29T02:05:02;5.43;;;3.42;;
6823;SDS011;58633;49.470;11.004;2023-05-29T02:07:28;4.78;;;3.30;;
6823;SDS011;58633;49.470;11.004;2023-05-29T02:09:54;5.55;;;3.53;;
6823;SDS011;58633;49.470;11.004;2023-05-29T02:12:19;5.20;;;3.80;;
6823;SDS011;58633;49.470;11.004;2023-05-29T02:14:45;6.55;;;3.78;;
6823;SDS011;58633;49.470;11.004;2023-05-29T02:17:11;6.80;;;4.07;;
6823;SDS011;58633;49.470;11.004;2023-05-29T02:19:37;6.60;;;4.00;;
6823;SDS011;58633;49.470;11.004;2023-05-29T02:22:02;4.90;;;3.78;;
6823;SDS011;58633;49.470;11.004;2023-05-29T02:24:28;4.97;;;3.80;;
6823;SDS011;58633;49.470;11.004;2023-05-29T02:26:54;6.78;;;3.88;;
6823;SDS011;58633;49.470;11.004;2023-05-29T02:29:20;5.90;;;3.80;;
6823;SDS011;58633;49.470;11.004;2023-05-29T02:31:45;5.85;;;3.60;;
6823;SDS011;58633;49.470;11.004;2023-05-29T02:34:11;7.43;;;4.00;;
6823;SDS011;58633;49.470;11.004;2023-05-29T02:36:36;5.20;;;3.72;;
6823;SDS011;58633;49.470;11.004;2023-05-29T02:39:03;5.20;;;3.67;;
6823;SDS011;58633;49.470;11.004;2023-05-29T02:41:30;6.22;;;3.70;;
6823;SDS011;58633;49.470;11.004;2023-05-29T02:43:56;7.50;;;3.80;;
6823;SDS011;58633;49.470;11.004;2023-05-29T02:46:21;4.97;;;3.40;;
6823;SDS011;58633;49.470;11.004;2023-05-29T02:48:47;5.00;;;3.80;;
6823;SDS011;58633;49.470;11.004;2023-05-29T02:51:13;5.63;;;3.28;;
6823;SDS011;58633;49.470;11.004;2023-05-29T02:53:39;4.43;;;3.30;;
6823;SDS011;58633;49.470;11.004;2023-05-29T02:56:05;4.10;;;2.97;;
6823;SDS011;58633;49.470;11.004;2023-05-29T02:58:32;5.57;;;3.65;;
6823;SDS011;58633;49.470;11.004;2023-05-29T03:00:58;4.85;;;3.33;;
6823;SDS011;58633;49.470;11.004;2023-05-29T03:03:25;5.95;;;3.50;;
6823;SDS011;58633;49.470;11.004;2023-05-29T03:05:50;7.60;;;3.67;;
6823;SDS011;58633;49.470;11.004;2023-05-29T03:08:16;4.97;;;3.58;;
6823;SDS011;58633;49.470;11.004;2023-05-29T03:10:42;6.47;;;3.85;;
6823;SDS011;58633;49.470;11.004;2023-05-29T03:13:09;6.95;;;3.50;;
6823;SDS011;58633;49.470;11.004;2023-05-29T03:15:35;5.53;;;3.45;;
6823;SDS011;58633;49.470;11.004;2023-05-29T03:18:00;4.10;;;3.33;;
6823;SDS011;58633;49.470;11.004;2023-05-29T03:20:25;4.55;;;3.67;;
6823;SDS011;58633;49.470;11.004;2023-05-29T03:22:53;4.93;;;3.67;;
6823;SDS011;58633;49.470;11.004;2023-05-29T03:25:18;7.22;;;3.50;;
6823;SDS011;58633;49.470;11.004;2023-05-29T03:27:45;6.03;;;3.97;;
6823;SDS011;58633;49.470;11.004;2023-05-29T03:30:10;4.15;;;3.35;;
6823;SDS011;58633;49.470;11.004;2023-05-29T03:32:36;5.00;;;3.63;;
6823;SDS011;58633;49.470;11.004;2023-05-29T03:35:02;5.43;;;4.18;;
6823;SDS011;58633;49.470;11.004;2023-05-29T03:37:28;5.13;;;3.63;;
6823;SDS011;58633;49.470;11.004;2023-05-29T03:39:54;6.55;;;3.72;;
6823;SDS011;58633;49.470;11.004;2023-05-29T03:42:20;6.07;;;3.58;;
6823;SDS011;58633;49.470;11.004;2023-05-29T03:44:46;5.38;;;3.40;;
6823;SDS011;58633;49.470;11.004;2023-05-29T03:47:11;5.22;;;3.55;;
6823;SDS011;58633;49.470;11.004;2023-05-29T03:49:37;4.85;;;3.33;;
6823;SDS011;58633;49.470;11.004;2023-05-29T03:52:03;5.07;;;3.63;;
6823;SDS011;58633;49.470;11.004;2023-05-29T03:54:29;4.30;;;3.53;;
6823;SDS011;58633;49.470;11.004;2023-05-29T03:56:54;4.60;;;3.60;;
6823;SDS011;58633;49.470;11.004;2023-05-29T03:59:20;5.70;;;3.67;;
6823;SDS011;58633;49.470;11.004;2023-05-29T04:01:46;4.78;;;3.42;;
6823;SDS011;58633;49.470;11.004;2023-05-29T04:04:11;5.65;;;3.42;;
6823;SDS011;58633;49.470;11.004;2023-05-29T04:06:37;8.07;;;3.78;;
6823;SDS011;58633;49.470;11.004;2023-05-29T04:09:05;4.18;;;3.25;;
6823;SDS011;58633;49.470;11.004;2023-05-29T04:11:32;9.10;;;3.83;;
6823;SDS011;58633;49.470;11.004;2023-05-29T04:13:59;7.63;;;4.30;;
6823;SDS011;58633;49.470;11.004;2023-05-29T04:16:28;5.40;;;3.67;;
6823;SDS011;58633;49.470;11.004;2023-05-29T04:18:54;5.03;;;3.75;;
6823;SDS011;58633;49.470;11.004;2023-05-29T04:21:20;6.35;;;3.90;;
6823;SDS011;58633;49.470;11.004;2023-05-29T04:23:46;6.22;;;4.00;;
6823;SDS011;58633;49.470;11.004;2023-05-29T04:26:11;5.63;;;3.53;;
6823;SDS011;58633;49.470;11.004;2023-05-29T04:28:37;4.30;;;3.63;;
6823;SDS011;58633;49.470;11.004;2023-05-29T04:31:03;4.35;;;3.65;;
6823;SDS011;58633;49.470;11.004;2023-05-29T04:33:30;7.10;;;3.75;;
6823;SDS011;58633;49.470;11.004;2023-05-29T04:35:57;5.00;;;3.85;;
6823;SDS011;58633;49.470;11.004;2023-05-29T04:38:25;7.25;;;3.50;;
6823;SDS011;58633;49.470;11.004;2023-05-29T04:40:51;5.85;;;3.83;;
6823;SDS011;58633;49.470;11.004;2023-05-29T04:43:18;3.78;;;3.35;;
6823;SDS011;58633;49.470;11.004;2023-05-29T04:45:43;7.18;;;4.03;;
6823;SDS011;58633;49.470;11.004;2023-05-29T04:48:09;5.93;;;3.13;;
6823;SDS011;58633;49.470;11.004;2023-05-29T04:50:34;5.13;;;3.38;;
6823;SDS011;58633;49.470;11.004;2023-05-29T04:53:01;5.15;;;3.80;;
6823;SDS011;58633;49.470;11.004;2023-05-29T04:55:27;4.93;;;3.50;;
6823;SDS011;58633;49.470;11.004;2023-05-29T04:57:52;5.07;;;3.72;;
6823;SDS011;58633;49.470;11.004;2023-05-29T05:00:18;5.03;;;3.45;;
6823;SDS011;58633;49.470;11.004;2023-05-29T05:02:44;6.25;;;3.80;;
6823;SDS011;58633;49.470;11.004;2023-05-29T05:05:11;4.63;;;3.70;;
6823;SDS011;58633;49.470;11.004;2023-05-29T05:07:37;5.53;;;3.60;;
6823;SDS011;58633;49.470;11.004;2023-05-29T05:10:03;6.25;;;3.50;;
6823;SDS011;58633;49.470;11.004;2023-05-29T05:12:29;5.30;;;3.60;;
6823;SDS011;58633;49.470;11.004;2023-05-29T05:14:55;5.53;;;3.53;;
6823;SDS011;58633;49.470;11.004;2023-05-29T05:17:20;4.80;;;3.45;;
6823;SDS011;58633;49.470;11.004;2023-05-29T05:19:46;4.68;;;3.30;;
6823;SDS011;58633;49.470;11.004;2023-05-29T05:22:14;6.07;;;3.30;;
6823;SDS011;58633;49.470;11.004;2023-05-29T05:24:40;5.72;;;3.30;;
6823;SDS011;58633;49.470;11.004;2023-05-29T05:27:05;6.07;;;3.47;;
6823;SDS011;58633;49.470;11.004;2023-05-29T05:29:31;5.43;;;3.10;;
6823;SDS011;58633;49.470;11.004;2023-05-29T05:31:56;9.60;;;3.45;;
6823;SDS011;58633;49.470;11.004;2023-05-29T05:34:22;5.68;;;3.40;;
6823;SDS011;58633;49.470;11.004;2023-05-29T05:36:47;6.50;;;3.95;;
6823;SDS011;58633;49.470;11.004;2023-05-29T05:39:14;5.25;;;3.50;;
6823;SDS011;58633;49.470;11.004;2023-05-29T05:41:39;4.30;;;3.45;;
6823;SDS011;58633;49.470;11.004;2023-05-29T05:44:05;6.05;;;3.55;;
6823;SDS011;58633;49.470;11.004;2023-05-29T05:46:31;4.95;;;3.53;;
6823;SDS011;58633;49.470;11.004;2023-05-29T05:48:56;4.95;;;3.30;;
6823;SDS011;58633;49.470;11.004;2023-05-29T05:51:22;4.35;;;3.30;;
6823;SDS011;58633;49.470;11.004;2023-05-29T05:53:48;5.55;;;3.50;;
6823;SDS011;58633;49.470;11.004;2023-05-29T05:56:14;5.53;;;3.60;;
6823;SDS011;58633;49.470;11.004;2023-05-29T05:58:39;6.85;;;3.40;;
6823;SDS011;58633;49.470;11.004;2023-05-29T06:01:06;6.35;;;3.80;;
6823;SDS011;58633;49.470;11.004;2023-05-29T06:03:33;7.70;;;5.03;;
6823;SDS011;58633;49.470;11.004;2023-05-29T06:05:59;7.07;;;4.35;;
6823;SDS011;58633;49.470;11.004;2023-05-29T06:08:25;5.25;;;4.03;;
6823;SDS011;58633;49.470;11.004;2023-05-29T06:10:50;11.35;;;5.95;;
6823;SDS011;58633;49.470;11.004;2023-05-29T06:13:16;15.25;;;9.18;;
6823;SDS011;58633;49.470;11.004;2023-05-29T06:15:42;14.60;;;9.35;;
6823;SDS011;58633;49.470;11.004;2023-05-29T06:18:08;9.60;;;6.25;;
6823;SDS011;58633;49.470;11.004;2023-05-29T06:20:33;4.72;;;3.60;;
6823;SDS011;58633;49.470;11.004;2023-05-29T06:22:59;6.40;;;3.65;;
6823;SDS011;58633;49.470;11.004;2023-05-29T06:25:24;5.78;;;3.67;;
6823;SDS011;58633;49.470;11.004;2023-05-29T06:27:58;5.95;;;3.20;;
6823;SDS011;58633;49.470;11.004;2023-05-29T06:30:27;3.72;;;3.15;;
6823;SDS011;58633;49.470;11.004;2023-05-29T06:32:53;4.40;;;3.30;;
6823;SDS011;58633;49.470;11.004;2023-05-29T06:35:18;4.80;;;3.38;;
6823;SDS011;58633;49.470;11.004;2023-05-29T06:37:45;4.47;;;2.70;;
6823;SDS011;58633;49.470;11.004;2023-05-29T06:40:11;5.22;;;4.00;;
6823;SDS011;58633;49.470;11.004;2023-05-29T06:42:42;7.68;;;4.45;;
6823;SDS011;58633;49.470;11.004;2023-05-29T06:45:11;11.13;;;6.57;;
6823;SDS011;58633;49.470;11.004;2023-05-29T06:47:38;6.40;;;4.47;;
6823;SDS011;58633;49.470;11.004;2023-05-29T06:50:05;11.05;;;4.72;;
6823;SDS011;58633;49.470;11.004;2023-05-29T06:52:31;8.00;;;3.72;;
6823;SDS011;58633;49.470;11.004;2023-05-29T06:54:57;6.05;;;3.92;;
6823;SDS011;58633;49.470;11.004;2023-05-29T06:57:22;7.65;;;4.95;;
6823;SDS011;58633;49.470;11.004;2023-05-29T06:59:48;9.00;;;3.92;;
6823;SDS011;58633;49.470;11.004;2023-05-29T07:02:13;6.15;;;4.53;;
6823;SDS011;58633;49.470;11.004;2023-05-29T07:04:39;9.45;;;4.80;;
6823;SDS011;58633;49.470;11.004;2023-05-29T07:07:04;6.95;;;4.30;;
6823;SDS011;58633;49.470;11.004;2023-05-29T07:09:30;7.78;;;3.83;;
6823;SDS011;58633;49.470;11.004;2023-05-29T07:11:56;3.38;;;3.00;;
6823;SDS011;58633;49.470;11.004;2023-05-29T07:14:21;4.88;;;2.97;;
6823;SDS011;58633;49.470;11.004;2023-05-29T07:16:47;8.02;;;3.22;;
6823;SDS011;58633;49.470;11.004;2023-05-29T07:19:12;8.18;;;3.63;;
6823;SDS011;58633;49.470;11.004;2023-05-29T07:21:39;8.00;;;4.13;;
6823;SDS011;58633;49.470;11.004;2023-05-29T07:24:04;7.47;;;4.30;;
6823;SDS011;58633;49.470;11.004;2023-05-29T07:26:30;6.13;;;3.20;;
6823;SDS011;58633;49.470;11.004;2023-05-29T07:28:56;5.78;;;3.40;;
6823;SDS011;58633;49.470;11.004;2023-05-29T07:31:22;4.65;;;3.67;;
6823;SDS011;58633;49.470;11.004;2023-05-29T07:33:48;7.35;;;3.65;;
6823;SDS011;58633;49.470;11.004;2023-05-29T07:36:15;4.32;;;3.05;;
6823;SDS011;58633;49.470;11.004;2023-05-29T07:38:42;5.85;;;4.20;;
6823;SDS011;58633;49.470;11.004;2023-05-29T07:41:07;4.07;;;3.33;;
6823;SDS011;58633;49.470;11.004;2023-05-29T07:43:33;5.40;;;3.00;;
6823;SDS011;58633;49.470;11.004;2023-05-29T07:45:58;6.45;;;3.53;;
6823;SDS011;58633;49.470;11.004;2023-05-29T07:48:24;6.05;;;2.97;;
6823;SDS011;58633;49.470;11.004;2023-05-29T07:50:50;5.57;;;2.88;;
6823;SDS011;58633;49.470;11.004;2023-05-29T07:53:16;4.82;;;2.83;;
6823;SDS011;58633;49.470;11.004;2023-05-29T07:55:42;6.68;;;3.20;;
6823;SDS011;58633;49.470;11.004;2023-05-29T07:58:08;6.63;;;2.67;;
6823;SDS011;58633;49.470;11.004;2023-05-29T08:00:36;7.10;;;2.83;;
6823;SDS011;58633;49.470;11.004;2023-05-29T08:03:02;4.38;;;2.60;;
6823;SDS011;58633;49.470;11.004;2023-05-29T08:05:28;5.78;;;2.90;;
6823;SDS011;58633;49.470;11.004;2023-05-29T08:07:54;4.93;;;2.70;;
6823;SDS011;58633;49.470;11.004;2023-05-29T08:10:20;4.22;;;2.33;;
6823;SDS011;58633;49.470;11.004;2023-05-29T08:12:45;4.57;;;2.60;;
6823;SDS011;58633;49.470;11.004;2023-05-29T08:15:11;3.65;;;2.55;;
6823;SDS011;58633;49.470;11.004;2023-05-29T08:17:37;2.83;;;2.50;;
6823;SDS011;58633;49.470;11.004;2023-05-29T08:20:02;4.05;;;2.60;;
6823;SDS011;58633;49.470;11.004;2023-05-29T08:22:32;3.05;;;2.50;;
6823;SDS011;58633;49.470;11.004;2023-05-29T08:24:58;3.35;;;2.40;;
6823;SDS011;58633;49.470;11.004;2023-05-29T08:27:24;3.38;;;2.35;;
6823;SDS011;58633;49.470;11.004;2023-05-29T08:29:50;3.15;;;2.40;;
6823;SDS011;58633;49.470;11.004;2023-05-29T08:32:16;2.83;;;2.40;;
6823;SDS011;58633;49.470;11.004;2023-05-29T08:34:41;5.05;;;2.42;;
6823;SDS011;58633;49.470;11.004;2023-05-29T08:37:07;5.45;;;2.40;;
6823;SDS011;58633;49.470;11.004;2023-05-29T08:39:32;4.88;;;2.58;;
6823;SDS011;58633;49.470;11.004;2023-05-29T08:42:01;4.15;;;2.55;;
6823;SDS011;58633;49.470;11.004;2023-05-29T08:44:32;3.33;;;2.50;;
6823;SDS011;58633;49.470;11.004;2023-05-29T08:47:00;5.03;;;2.67;;
6823;SDS011;58633;49.470;11.004;2023-05-29T08:49:29;3.65;;;2.78;;
6823;SDS011;58633;49.470;11.004;2023-05-29T08:52:02;4.90;;;2.63;;
6823;SDS011;58633;49.470;11.004;2023-05-29T08:54:41;3.63;;;2.25;;
6823;SDS011;58633;49.470;11.004;2023-05-29T08:57:07;5.15;;;2.78;;
6823;SDS011;58633;49.470;11.004;2023-05-29T08:59:33;3.63;;;2.50;;
6823;SDS011;58633;49.470;11.004;2023-05-29T09:01:59;5.20;;;2.40;;
6823;SDS011;58633;49.470;11.004;2023-05-29T09:04:25;5.53;;;2.75;;
6823;SDS011;58633;49.470;11.004;2023-05-29T09:06:53;4.00;;;2.50;;
6823;SDS011;58633;49.470;11.004;2023-05-29T09:09:20;3.40;;;2.53;;
6823;SDS011;58633;49.470;11.004;2023-05-29T09:11:45;2.58;;;2.30;;
6823;SDS011;58633;49.470;11.004;2023-05-29T09:14:31;3.50;;;2.25;;
6823;SDS011;58633;49.470;11.004;2023-05-29T09:17:09;3.67;;;2.65;;
6823;SDS011;58633;49.470;11.004;2023-05-29T09:19:36;3.20;;;2.45;;
6823;SDS011;58633;49.470;11.004;2023-05-29T09:22:06;3.72;;;2.28;;
6823;SDS011;58633;49.470;11.004;2023-05-29T09:24:33;6.05;;;2.63;;
6823;SDS011;58633;49.470;11.004;2023-05-29T09:27:00;5.72;;;2.63;;
6823;SDS011;58633;49.470;11.004;2023-05-29T09:29:27;4.30;;;2.50;;
6823;SDS011;58633;49.470;11.004;2023-05-29T09:31:55;4.32;;;2.65;;
6823;SDS011;58633;49.470;11.004;2023-05-29T09:34:23;4.10;;;2.38;;
6823;SDS011;58633;49.470;11.004;2023-05-29T09:36:52;3.00;;;2.50;;
6823;SDS011;58633;49.470;11.004;2023-05-29T09:39:18;3.63;;;2.60;;
6823;SDS011;58633;49.470;11.004;2023-05-29T09:41:44;3.72;;;2.40;;
6823;SDS011;58633;49.470;11.004;2023-05-29T09:44:14;2.75;;;2.38;;
6823;SDS011;58633;49.470;11.004;2023-05-29T09:46:41;3.38;;;2.47;;
6823;SDS011;58633;49.470;11.004;2023-05-29T09:49:11;4.38;;;2.72;;
6823;SDS011;58633;49.470;11.004;2023-05-29T09:51:38;4.97;;;2.63;;
6823;SDS011;58633;49.470;11.004;2023-05-29T09:54:17;3.05;;;2.40;;
6823;SDS011;58633;49.470;11.004;2023-05-29T09:56:43;3.55;;;2.50;;
6823;SDS011;58633;49.470;11.004;2023-05-29T09:59:10;2.97;;;2.60;;
6823;SDS011;58633;49.470;11.004;2023-05-29T10:01:40;2.63;;;2.42;;
6823;SDS011;58633;49.470;11.004;2023-05-29T10:04:09;2.53;;;2.30;;
6823;SDS011;58633;49.470;11.004;2023-05-29T10:06:41;3.60;;;2.63;;
6823;SDS011;58633;49.470;11.004;2023-05-29T10:09:09;3.25;;;2.65;;
6823;SDS011;58633;49.470;11.004;2023-05-29T10:11:41;3.50;;;2.58;;
6823;SDS011;58633;49.470;11.004;2023-05-29T10:14:09;2.88;;;2.58;;
6823;SDS011;58633;49.470;11.004;2023-05-29T10:16:40;2.50;;;2.22;;
6823;SDS011;58633;49.470;11.004;2023-05-29T10:19:10;2.92;;;2.50;;
6823;SDS011;58633;49.470;11.004;2023-05-29T10:21:39;4.47;;;2.65;;
6823;SDS011;58633;49.470;11.004;2023-05-29T10:24:06;2.88;;;2.38;;
6823;SDS011;58633;49.470;11.004;2023-05-29T10:26:34;3.72;;;2.38;;
6823;SDS011;58633;49.470;11.004;2023-05-29T10:29:05;2.25;;;2.05;;
6823;SDS011;58633;49.470;11.004;2023-05-29T10:37:32;2.92;;;2.22;;
6823;SDS011;58633;49.470;11.004;2023-05-29T10:40:07;2.70;;;2.17;;
6823;SDS011;58633;49.470;11.004;2023-05-29T10:50:40;2.78;;;2.30;;
6823;SDS011;58633;49.470;11.004;2023-05-29T10:53:08;3.55;;;2.30;;
6823;SDS011;58633;49.470;11.004;2023-05-29T10:55:38;3.60;;;2.30;;
6823;SDS011;58633;49.470;11.004;2023-05-29T10:58:05;3.22;;;2.25;;
6823;SDS011;58633;49.470;11.004;2023-05-29T11:00:43;2.83;;;2.60;;
6823;SDS011;58633;49.470;11.004;2023-05-29T11:03:20;4.10;;;2.85;;
6823;SDS011;58633;49.470;11.004;2023-05-29T11:08:55;4.90;;;3.08;;
6823;SDS011;58633;49.470;11.004;2023-05-29T11:13:55;11.82;;;3.55;;
6823;SDS011;58633;49.470;11.004;2023-05-29T11:18:59;15.55;;;3.30;;
6823;SDS011;58633;49.470;11.004;2023-05-29T11:24:19;9.55;;;3.28;;
6823;SDS011;58633;49.470;11.004;2023-05-29T11:26:48;4.78;;;3.17;;
6823;SDS011;58633;49.470;11.004;2023-05-29T11:29:16;5.82;;;3.35;;
6823;SDS011;58633;49.470;11.004;2023-05-29T11:32:03;9.85;;;3.55;;
6823;SDS011;58633;49.470;11.004;2023-05-29T11:34:35;6.53;;;2.70;;
6823;SDS011;58633;49.470;11.004;2023-05-29T11:37:05;4.72;;;2.67;;
6823;SDS011;58633;49.470;11.004;2023-05-29T11:39:31;7.20;;;3.03;;
6823;SDS011;58633;49.470;11.004;2023-05-29T11:42:01;8.30;;;3.10;;
6823;SDS011;58633;49.470;11.004;2023-05-29T11:44:27;6.00;;;2.95;;
6823;SDS011;58633;49.470;11.004;2023-05-29T11:46:59;4.47;;;2.90;;
6823;SDS011;58633;49.470;11.004;2023-05-29T11:49:30;4.57;;;2.50;;
6823;SDS011;58633;49.470;11.004;2023-05-29T11:52:07;4.05;;;2.85;;
6823;SDS011;58633;49.470;11.004;2023-05-29T11:54:34;3.58;;;2.40;;
6823;SDS011;58633;49.470;11.004;2023-05-29T11:57:00;3.47;;;2.88;;
6823;SDS011;58633;49.470;11.004;2023-05-29T11:59:30;6.32;;;2.65;;
6823;SDS011;58633;49.470;11.004;2023-05-29T12:02:01;5.82;;;3.00;;
6823;SDS011;58633;49.470;11.004;2023-05-29T12:04:28;4.00;;;2.70;;
6823;SDS011;58633;49.470;11.004;2023-05-29T12:06:53;4.30;;;2.95;;
6823;SDS011;58633;49.470;11.004;2023-05-29T12:09:23;3.83;;;2.72;;
6823;SDS011;58633;49.470;11.004;2023-05-29T12:11:53;3.53;;;2.65;;
6823;SDS011;58633;49.470;11.004;2023-05-29T12:14:28;4.95;;;2.78;;
6823;SDS011;58633;49.470;11.004;2023-05-29T12:16:53;2.72;;;2.35;;
6823;SDS011;58633;49.470;11.004;2023-05-29T12:19:19;7.68;;;3.30;;
6823;SDS011;58633;49.470;11.004;2023-05-29T12:21:45;2.90;;;2.30;;
6823;SDS011;58633;49.470;11.004;2023-05-29T12:24:10;2.78;;;2.55;;
6823;SDS011;58633;49.470;11.004;2023-05-29T12:26:36;3.55;;;2.08;;
6823;SDS011;58633;49.470;11.004;2023-05-29T12:29:03;3.80;;;2.63;;
6823;SDS011;58633;49.470;11.004;2023-05-29T12:31:32;5.57;;;2.42;;
6823;SDS011;58633;49.470;11.004;2023-05-29T12:34:02;3.63;;;2.13;;
6823;SDS011;58633;49.470;11.004;2023-05-29T12:36:40;4.93;;;2.55;;
6823;SDS011;58633;49.470;11.004;2023-05-29T12:39:06;3.20;;;2.80;;
6823;SDS011;58633;49.470;11.004;2023-05-29T12:41:36;5.20;;;2.50;;
6823;SDS011;58633;49.470;11.004;2023-05-29T12:44:04;4.18;;;2.35;;
6823;SDS011;58633;49.470;11.004;2023-05-29T12:46:38;4.47;;;2.60;;
6823;SDS011;58633;49.470;11.004;2023-05-29T12:49:14;7.10;;;2.55;;
6823;SDS011;58633;49.470;11.004;2023-05-29T12:51:42;6.15;;;2.50;;
6823;SDS011;58633;49.470;11.004;2023-05-29T12:54:12;3.85;;;2.53;;
6823;SDS011;58633;49.470;11.004;2023-05-29T12:56:41;4.10;;;2.25;;
6823;SDS011;58633;49.470;11.004;2023-05-29T12:59:07;3.88;;;2.53;;
6823;SDS011;58633;49.470;11.004;2023-05-29T13:01:33;5.28;;;2.20;;
6823;SDS011;58633;49.470;11.004;2023-05-29T13:03:59;2.35;;;2.15;;
6823;SDS011;58633;49.470;11.004;2023-05-29T13:06:25;2.30;;;2.08;;
6823;SDS011;58633;49.470;11.004;2023-05-29T13:08:51;2.92;;;2.33;;
6823;SDS011;58633;49.470;11.004;2023-05-29T13:11:17;4.53;;;2.60;;
6823;SDS011;58633;49.470;11.004;2023-05-29T13:13:43;2.38;;;2.08;;
6823;SDS011;58633;49.470;11.004;2023-05-29T13:16:08;2.72;;;2.40;;
6823;SDS011;58633;49.470;11.004;2023-05-29T13:18:34;2.42;;;2.22;;
6823;SDS011;58633;49.470;11.004;2023-05-29T13:20:59;2.40;;;2.20;;
6823;SDS011;58633;49.470;11.004;2023-05-29T13:23:25;2.83;;;2.20;;
6823;SDS011;58633;49.470;11.004;2023-05-29T13:25:51;3.45;;;2.58;;
6823;SDS011;58633;49.470;11.004;2023-05-29T13:28:16;5.03;;;2.67;;
6823;SDS011;58633;49.470;11.004;2023-05-29T13:30:43;4.32;;;2.40;;
6823;SDS011;58633;49.470;11.004;2023-05-29T13:33:09;5.00;;;2.60;;
6823;SDS011;58633;49.470;11.004;2023-05-29T13:35:34;2.75;;;2.22;;
6823;SDS011;58633;49.470;11.004;2023-05-29T13:38:00;2.63;;;2.17;;
6823;SDS011;58633;49.470;11.004;2023-05-29T13:40:25;3.30;;;2.38;;
6823;SDS011;58633;49.470;11.004;2023-05-29T13:42:51;3.15;;;2.55;;
6823;SDS011;58633;49.470;11.004;2023-05-29T13:45:17;2.63;;;2.40;;
6823;SDS011;58633;49.470;11.004;2023-05-29T13:47:42;4.07;;;3.17;;
6823;SDS011;58633;49.470;11.004;2023-05-29T13:50:08;6.93;;;2.85;;
6823;SDS011;58633;49.470;11.004;2023-05-29T13:52:34;4.75;;;2.83;;
6823;SDS011;58633;49.470;11.004;2023-05-29T13:54:59;5.50;;;2.83;;
6823;SDS011;58633;49.470;11.004;2023-05-29T13:57:31;3.78;;;2.25;;
6823;SDS011;58633;49.470;11.004;2023-05-29T13:59:56;3.63;;;2.70;;
6823;SDS011;58633;49.470;11.004;2023-05-29T14:02:25;3.17;;;2.83;;
6823;SDS011;58633;49.470;11.004;2023-05-29T14:04:51;3.05;;;2.45;;
6823;SDS011;58633;49.470;11.004;2023-05-29T14:07:17;6.10;;;2.80;;
6823;SDS011;58633;49.470;11.004;2023-05-29T14:09:42;7.40;;;2.72;;
6823;SDS011;58633;49.470;11.004;2023-05-29T14:12:08;5.40;;;3.00;;
6823;SDS011;58633;49.470;11.004;2023-05-29T14:14:33;3.25;;;2.70;;
6823;SDS011;58633;49.470;11.004;2023-05-29T14:16:59;6.00;;;2.78;;
6823;SDS011;58633;49.470;11.004;2023-05-29T14:19:25;2.90;;;2.65;;
6823;SDS011;58633;49.470;11.004;2023-05-29T14:21:51;3.25;;;2.85;;
6823;SDS011;58633;49.470;11.004;2023-05-29T14:24:17;4.93;;;2.80;;
6823;SDS011;58633;49.470;11.004;2023-05-29T14:26:43;4.90;;;2.58;;
6823;SDS011;58633;49.470;11.004;2023-05-29T14:29:12;2.95;;;2.65;;
6823;SDS011;58633;49.470;11.004;2023-05-29T14:31:38;5.50;;;3.15;;
6823;SDS011;58633;49.470;11.004;2023-05-29T14:34:04;4.00;;;2.70;;
6823;SDS011;58633;49.470;11.004;2023-05-29T14:36:30;2.60;;;2.40;;
6823;SDS011;58633;49.470;11.004;2023-05-29T14:38:55;4.32;;;3.20;;
6823;SDS011;58633;49.470;11.004;2023-05-29T14:41:21;3.47;;;2.47;;
6823;SDS011;58633;49.470;11.004;2023-05-29T14:43:47;5.95;;;2.95;;
6823;SDS011;58633;49.470;11.004;2023-05-29T14:46:13;3.10;;;2.72;;
6823;SDS011;58633;49.470;11.004;2023-05-29T14:48:39;2.67;;;2.47;;
6823;SDS011;58633;49.470;11.004;2023-05-29T14:51:05;3.78;;;2.60;;
6823;SDS011;58633;49.470;11.004;2023-05-29T14:53:33;3.70;;;2.65;;
6823;SDS011;58633;49.470;11.004;2023-05-29T14:56:00;3.95;;;2.55;;
6823;SDS011;58633;49.470;11.004;2023-05-29T14:58:29;2.70;;;2.50;;
6823;SDS011;58633;49.470;11.004;2023-05-29T15:00:55;4.93;;;2.97;;
6823;SDS011;58633;49.470;11.004;2023-05-29T15:03:21;5.18;;;3.00;;
6823;SDS011;58633;49.470;11.004;2023-05-29T15:05:51;3.50;;;2.90;;
6823;SDS011;58633;49.470;11.004;2023-05-29T15:08:17;4.10;;;3.10;;
6823;SDS011;58633;49.470;11.004;2023-05-29T15:10:47;4.47;;;2.83;;
6823;SDS011;58633;49.470;11.004;2023-05-29T15:13:13;3.33;;;2.55;;
6823;SDS011;58633;49.470;11.004;2023-05-29T15:15:41;2.75;;;2.55;;
6823;SDS011;58633;49.470;11.004;2023-05-29T15:18:10;3.10;;;2.50;;